Shen Hang 935 — BXGY — position and weather

sailwx.info

Track history (hours):
 
Tides and Currents Weather Stations Pressure Air Temp Water Temp Dewpoint Dewpoint Depression Visibility Wind Speed Wind Dir Waves Ship Positions

Shen Hang 935

Last reported at 2014-Oct-29 09:05 UTC. Time now 2014-Oct-30 17:38 UTC.
Position N 22°18' E 114°12'.

Length 49 m; draft 2.8 m.

Type: Ship. MMSI: 412466550.

Date/timePositionNaut miles runAvg speedWind from/ knotsBaromVisibWave heightAir tempDewpointWater temp
2014-Oct-29 09:05N 22°18' E 114°12'16 2.9
2014-Oct-29 03:32N 22°34' E 114°15'0 0.0
2014-Oct-29 02:32N 22°34' E 114°15'0 0.0
2014-Oct-29 01:32N 22°34' E 114°15'0 0.0
2014-Oct-29 00:27N 22°34' E 114°15'0 0.0
2014-Oct-28 23:32N 22°34' E 114°15'0 0.0
2014-Oct-28 22:16N 22°34' E 114°15'0 0.3
2014-Oct-28 21:33N 22°34' E 114°15'0 0.0
2014-Oct-28 20:33N 22°34' E 114°15'0 0.0
2014-Oct-28 19:33N 22°34' E 114°15'0 0.0
2014-Oct-28 18:33N 22°34' E 114°15'0 0.0
2014-Oct-28 17:33N 22°34' E 114°15'17 2.6
2014-Oct-28 11:06N 22°17' E 114°13'4 5.3
2014-Oct-28 10:26N 22°17' E 114°09'0 0.0
2014-Oct-26 09:29N 22°18' E 114°10'3 0.2
2014-Oct-25 15:33N 22°18' E 114°13'3 0.1
2014-Oct-23 21:11N 22°18' E 114°09'3 0.1
2014-Oct-22 11:13N 22°18' E 114°13'4 5.0
2014-Oct-22 10:25N 22°18' E 114°09'17 3.4
2014-Oct-22 05:31N 22°26' E 113°53'  
Track history (hours):
 
Tides and Currents Weather Stations Pressure Air Temp Water Temp Dewpoint Dewpoint Depression Visibility Wind Speed Wind Dir Waves Ship Positions

Shen Hang 935

Last reported at 2014-Oct-29 09:05 UTC. Time now 2014-Oct-30 17:38 UTC.
Position N 22°18' E 114°12'.

Length 49 m; draft 2.8 m.

Type: Ship. MMSI: 412466550.

Date/timePositionNaut miles runAvg speedWind from/ knotsBaromVisibWave heightAir tempDewpointWater temp
2014-Oct-29 09:05N 22°18' E 114°12'16 2.9
2014-Oct-29 03:32N 22°34' E 114°15'0 0.0
2014-Oct-29 02:32N 22°34' E 114°15'0 0.0
2014-Oct-29 01:32N 22°34' E 114°15'0 0.0
2014-Oct-29 00:27N 22°34' E 114°15'0 0.0
2014-Oct-28 23:32N 22°34' E 114°15'0 0.0
2014-Oct-28 22:16N 22°34' E 114°15'0 0.3
2014-Oct-28 21:33N 22°34' E 114°15'0 0.0
2014-Oct-28 20:33N 22°34' E 114°15'0 0.0
2014-Oct-28 19:33N 22°34' E 114°15'0 0.0
2014-Oct-28 18:33N 22°34' E 114°15'0 0.0
2014-Oct-28 17:33N 22°34' E 114°15'17 2.6
2014-Oct-28 11:06N 22°17' E 114°13'4 5.3
2014-Oct-28 10:26N 22°17' E 114°09'0 0.0
2014-Oct-26 09:29N 22°18' E 114°10'3 0.2
2014-Oct-25 15:33N 22°18' E 114°13'3 0.1
2014-Oct-23 21:11N 22°18' E 114°09'3 0.1
2014-Oct-22 11:13N 22°18' E 114°13'4 5.0
2014-Oct-22 10:25N 22°18' E 114°09'17 3.4
2014-Oct-22 05:31N 22°26' E 113°53'  

Dump ship's entire track history